Latest Weather Observations for Bathurst Airport

IDN60801

Issued at 9:32 am EST Friday 6 May 2016 (issued every 30 minutes, with the page automatically refreshed every 10 minutes)

About weather observations | Map of weather stations | Latest weather observations for NSW | Other Formats
Station Details ID: 063291 Name: BATHURST AIRPORT AWS Lat: -33.41 Lon: 149.65 Height: 744.5 m
Data from the previous 72 hours. | See also: Recent months at Bathurst Airport
Date/Time
EST
Temp
°C
App
Temp
°C
Dew
Point
Rel
Hum
%
Delta-T
°C
Wind Press
QNH
hPa
Press
MSL
hPa
Rain
since 9 am
mm
Dir
 
Spd
km/h
Gust
km/h
Spd
kts
Gust
kts
06/09:30am 11.2 10.0 8.1 81 1.6 WNW 4 7 2 4 1022.8 1022.7 0.0
06/09:00am 8.9 7.7 8.0 94 0.4 SW 4 7 2 4 1022.6 1022.5 0.0
06/08:30am 8.0 6.0 7.2 95 0.4 SSW 7 11 4 6 1022.7 1022.6 0.0
06/08:00am 6.8 6.0 6.7 99 0.0 CALM 0 0 0 0 1022.4 1022.3 0.0
06/07:30am 5.1 3.6 5.1 100 0.0 SE 2 6 1 3 1022.2 1022.1 0.0
06/07:00am 4.4 2.0 4.3 99 0.0 SSW 6 7 3 4 1021.9 1021.7 0.0
06/06:30am 4.2 2.9 4.1 99 0.0 CALM 0 0 0 0 1021.4 1021.3 0.0
06/06:00am 4.0 1.3 3.9 99 0.0 SW 7 9 4 5 1021.0 1020.9 0.0
06/05:30am 4.9 3.7 4.8 99 0.0 CALM 0 0 0 0 1020.8 1020.6 0.0
06/05:00am 4.9 3.4 4.8 99 0.0 S 2 7 1 4 1020.6 1020.4 0.0
06/04:30am 5.1 2.6 5.0 99 0.0 S 7 9 4 5 1020.4 1020.2 0.0
06/04:00am 4.7 3.5 4.6 99 0.0 CALM 0 0 0 0 1020.5 1020.3 0.0
06/03:30am 4.9 3.7 4.8 99 0.0 CALM 0 0 0 0 1020.4 1020.2 0.0
06/03:00am 4.5 3.3 4.4 99 0.0 CALM 0 0 0 0 1020.5 1020.3 0.0
06/02:30am 4.9 3.7 4.8 99 0.0 CALM 0 0 0 0 1020.7 1020.5 0.0
06/02:00am 6.0 3.9 5.9 99 0.0 SE 6 9 3 5 1020.7 1020.5 0.0
06/01:30am 5.8 3.7 5.7 99 0.0 S 6 7 3 4 1020.9 1020.8 0.0
06/01:00am 6.7 4.8 6.6 99 0.0 S 6 7 3 4 1021.0 1020.9 0.0
06/12:30am 6.7 5.9 6.4 98 0.1 CALM 0 0 0 0 1020.9 1020.8 0.0
06/12:00am 6.5 5.5 5.6 94 0.4 CALM 0 0 0 0 1021.0 1020.9 0.0
 
Date/Time
EST
Temp
°C
App
Temp
°C
Dew
Point
Rel
Hum
%
Delta-T
°C
Wind Press
QNH
hPa
Press
MSL
hPa
Rain
since 9 am
mm
Dir
 
Spd
km/h
Gust
km/h
Spd
kts
Gust
kts
05/11:30pm 7.9 7.1 6.7 92 0.6 CALM 0 0 0 0 1021.0 1020.9 0.0
05/11:00pm 9.1 8.0 6.9 86 1.1 S 2 7 1 4 1021.0 1020.9 0.0
05/10:30pm 7.7 6.7 5.5 86 1.0 CALM 0 0 0 0 1021.3 1021.2 0.0
05/10:00pm 10.3 9.4 7.9 85 1.2 NE 2 6 1 3 1021.3 1021.2 0.0
05/09:30pm 10.3 8.8 6.8 79 1.7 NE 4 7 2 4 1021.3 1021.2 0.0
05/09:00pm 10.6 9.8 6.4 75 2.0 CALM 0 7 0 4 1021.2 1021.1 0.0
05/08:30pm 10.9 8.7 6.1 72 2.3 ENE 7 7 4 4 1021.2 1021.1 0.0
05/08:00pm 12.3 10.2 6.8 69 2.7 ENE 7 9 4 5 1020.9 1020.8 0.0
05/07:30pm 13.3 12.4 6.2 62 3.5 CALM 0 0 0 0 1020.7 1020.5 0.0
05/07:00pm 13.3 12.4 6.2 62 3.5 CALM 0 0 0 0 1020.5 1020.3 0.0
05/06:30pm 13.5 11.1 5.4 58 4.0 W 7 9 4 5 1020.2 1020.1 0.0
05/06:00pm 14.4 11.7 5.7 56 4.3 NNW 9 11 5 6 1019.9 1019.8 0.0
05/05:30pm 14.5 11.4 5.6 55 4.4 WNW 11 13 6 7 1019.6 1019.4 0.0
05/05:00pm 16.8 13.0 6.0 49 5.5 NW 15 19 8 10 1019.3 1019.1 0.0
05/04:30pm 18.4 15.2 6.9 47 6.0 NNW 13 24 7 13 1019.2 1019.0 0.0
05/04:00pm 19.5 16.3 6.9 44 6.6 NW 13 20 7 11 1019.2 1019.0 0.0
05/03:30pm 19.2 16.1 7.3 46 6.3 N 13 17 7 9 1019.2 1019.0 0.0
05/03:00pm 19.0 16.3 7.4 47 6.1 N 11 17 6 9 1019.3 1019.1 0.0
05/02:30pm 18.9 16.0 6.7 45 6.3 NNW 11 17 6 9 1019.3 1019.1 0.0
05/02:00pm 18.8 15.2 6.9 46 6.2 N 15 20 8 11 1019.4 1019.2 0.0
05/01:30pm 17.9 14.6 6.4 47 5.9 W 13 19 7 10 1019.5 1019.3 0.0
05/01:00pm 17.8 15.4 7.0 49 5.6 WNW 9 17 5 9 1019.9 1019.8 0.0
05/12:30pm 17.0 15.1 6.8 51 5.3 W 6 11 3 6 1020.4 1020.2 0.0
05/12:00pm 15.3 12.6 5.8 53 4.7 W 9 11 5 6 1021.0 1020.9 0.0
05/11:30am 14.8 12.3 6.4 57 4.2 WSW 9 13 5 7 1021.4 1021.3 0.0
05/11:00am 14.6 12.6 6.4 58 4.1 W 6 9 3 5 1021.8 1021.6 0.0
05/10:30am 12.9 11.7 6.3 64 3.3 SW 2 6 1 3 1022.1 1022.0 0.0
05/10:00am 11.0 9.9 6.9 76 2.0 WSW 2 7 1 4 1022.4 1022.3 0.0
05/09:30am 9.0 7.1 6.6 85 1.2 WSW 6 7 3 4 1022.5 1022.4 0.0
05/09:00am 8.3 7.5 6.3 87 1.0 CALM 0 0 0 0 1022.5 1022.4 0.0
05/08:30am 7.1 6.3 6.4 95 0.3 CALM 0 0 0 0 1022.4 1022.3 0.0
05/08:00am 5.6 4.6 5.5 99 0.0 CALM 0 0 0 0 1022.2 1022.1 0.0
05/07:30am 3.8 1.7 3.7 99 0.0 ESE 4 7 2 4 1022.1 1022.0 0.0
05/07:00am 2.7 0.0 2.6 99 0.0 S 6 7 3 4 1021.8 1021.6 0.0
05/06:30am 2.9 1.4 2.8 99 0.0 CALM 0 0 0 0 1021.4 1021.3 0.0
05/06:00am 3.0 1.5 2.9 99 0.0 CALM 0 0 0 0 1021.3 1021.2 0.0
05/05:30am 2.7 1.1 2.6 99 0.0 CALM 0 0 0 0 1021.3 1021.2 0.0
05/05:00am 2.6 1.0 2.5 99 0.0 CALM 0 0 0 0 1021.0 1020.9 0.0
05/04:30am 3.0 1.5 2.9 99 0.0 CALM 0 0 0 0 1021.0 1020.9 0.0
05/04:00am 3.8 2.4 3.7 99 0.0 CALM 0 6 0 3 1020.9 1020.8 0.0
05/03:30am 4.2 2.9 4.1 99 0.0 CALM 0 0 0 0 1020.7 1020.5 0.0
05/03:00am 4.5 3.3 4.4 99 0.0 CALM 0 0 0 0 1020.8 1020.6 0.0
05/02:30am 5.3 3.5 5.2 99 0.0 NNE 4 6 2 3 1020.8 1020.6 0.0
05/02:00am 5.7 4.6 5.1 96 0.3 CALM 0 0 0 0 1020.9 1020.8 0.0
05/01:30am 6.3 5.3 5.7 96 0.3 CALM 0 0 0 0 1021.0 1020.9 0.0
05/01:00am 6.4 5.4 5.8 96 0.3 CALM 0 0 0 0 1021.1 1021.0 0.0
05/12:30am 5.9 4.8 5.0 94 0.4 CALM 0 0 0 0 1021.2 1021.1 0.0
05/12:00am 6.7 5.6 5.3 91 0.6 CALM 0 0 0 0 1021.2 1021.1 0.0
 
Date/Time
EST
Temp
°C
App
Temp
°C
Dew
Point
Rel
Hum
%
Delta-T
°C
Wind Press
QNH
hPa
Press
MSL
hPa
Rain
since 9 am
mm
Dir
 
Spd
km/h
Gust
km/h
Spd
kts
Gust
kts
04/11:30pm 6.6 5.6 5.4 92 0.6 CALM 0 0 0 0 1021.3 1021.2 0.0
04/11:00pm 6.7 5.6 5.2 90 0.7 CALM 0 2 0 1 1021.3 1021.2 0.0
04/10:30pm 7.0 4.7 4.8 86 1.0 NNE 6 9 3 5 1021.3 1021.2 0.0
04/10:00pm 7.7 5.2 5.0 83 1.2 NE 7 7 4 4 1021.4 1021.3 0.0
04/09:30pm 9.7 8.7 5.5 75 2.0 CALM 0 0 0 0 1021.1 1021.0 0.0
04/09:00pm 9.8 8.7 5.0 72 2.3 CALM 0 2 0 1 1021.0 1020.9 0.0
04/08:30pm 10.7 8.4 5.0 68 2.7 SSW 6 7 3 4 1020.8 1020.6 0.0
04/08:00pm 9.8 8.6 4.4 69 2.5 CALM 0 0 0 0 1020.4 1020.2 0.0
04/07:30pm 11.4 9.1 4.6 63 3.2 SSW 6 7 3 4 1020.1 1020.0 0.0
04/07:00pm 11.9 9.4 4.9 62 3.3 SSW 7 9 4 5 1019.8 1019.7 0.0
04/06:30pm 12.4 10.1 5.6 63 3.3 SSW 7 9 4 5 1019.3 1019.1 0.0
04/06:00pm 12.1 9.0 5.7 65 3.1 SW 11 13 6 7 1018.9 1018.7 0.0
04/05:30pm 13.2 9.8 5.9 61 3.6 SW 13 17 7 9 1018.4 1018.2 0.0
04/05:00pm 15.2 11.4 6.0 54 4.6 SW 15 19 8 10 1017.9 1017.7 0.0
04/04:30pm 17.0 13.7 6.5 50 5.4 SW 13 19 7 10 1017.5 1017.3 0.0
04/04:00pm 17.3 13.5 5.9 47 5.8 WSW 15 22 8 12 1017.5 1017.3 0.0
04/03:30pm 18.0 14.3 6.5 47 5.9 WSW 15 20 8 11 1017.3 1017.2 0.0
04/03:00pm 17.8 13.2 5.7 45 6.1 WSW 19 24 10 13 1017.1 1016.9 0.0
04/02:30pm 18.0 13.8 5.9 45 6.2 WSW 17 30 9 16 1017.0 1016.8 0.0
04/02:00pm 18.1 13.5 6.6 47 5.9 WSW 20 30 11 16 1016.9 1016.7 0.0
04/01:30pm 17.8 11.8 5.4 44 6.2 WSW 26 35 14 19 1017.0 1016.8 0.0
04/01:00pm 18.4 13.1 6.9 47 6.0 WSW 24 32 13 17 1017.2 1017.0 0.0
04/12:30pm 18.2 12.8 6.4 46 6.1 W 24 35 13 19 1017.5 1017.3 0.0
04/12:00pm 18.1 13.3 7.5 50 5.6 WSW 22 32 12 17 1017.6 1017.4 0.0
04/11:30am 16.6 13.7 8.3 58 4.4 W 13 22 7 12 1018.0 1017.8 0.0
04/11:00am 16.9 15.4 9.1 60 4.2 NW 7 13 4 7 1018.1 1017.9 0.0
04/10:30am 14.9 13.1 7.9 63 3.6 WNW 7 15 4 8 1018.2 1018.0 0.0
04/10:00am 14.2 12.4 7.3 63 3.5 W 6 9 3 5 1018.3 1018.1 0.0
04/09:30am 13.7 11.9 7.0 64 3.4 W 6 13 3 7 1018.1 1017.9 0.0
04/09:00am 13.7 12.7 7.5 66 3.2 N 2 7 1 4 1018.1 1017.9 0.0
04/08:30am 11.9 9.4 6.6 70 2.6 N 9 11 5 6 1017.8 1017.6 0.0
04/08:00am 10.5 8.4 6.8 78 1.8 NNE 7 9 4 5 1017.5 1017.3 0.0
04/07:30am 9.1 7.0 6.5 84 1.3 NNE 7 9 4 5 1017.2 1017.0 0.0
04/07:00am 8.1 5.5 6.2 88 0.9 NNE 9 9 5 5 1016.5 1016.3 0.0
04/06:30am 7.6 5.4 6.4 92 0.6 NNE 7 9 4 5 1016.1 1015.8 0.0
04/06:00am 7.0 4.4 6.1 94 0.4 NNE 9 11 5 6 1015.7 1015.5 0.0
04/05:30am 8.0 6.1 6.6 91 0.7 NNE 6 7 3 4 1015.5 1015.3 0.0
04/05:00am 8.0 5.8 6.1 88 0.9 NE 7 11 4 6 1014.9 1014.6 0.0
04/04:30am 7.8 5.6 6.1 89 0.8 NNE 7 9 4 5 1014.7 1014.4 0.0
04/04:00am 7.7 5.1 6.0 89 0.8 N 9 11 5 6 1014.6 1014.3 0.0
04/03:30am 8.2 5.6 6.2 87 1.0 NNE 9 11 5 6 1014.4 1014.2 0.0
04/03:00am 7.9 5.2 5.7 86 1.0 NNE 9 11 5 6 1014.3 1014.1 0.0
04/02:30am 8.8 6.2 6.1 83 1.3 N 9 11 5 6 1014.3 1014.1 0.0
04/02:00am 8.8 5.7 5.5 80 1.6 NW 11 13 6 7 1014.3 1014.1 0.0
04/01:30am 9.4 5.7 6.1 80 1.6 NW 15 20 8 11 1014.3 1014.1 0.0
04/01:00am 9.1 5.8 6.5 84 1.3 NW 13 19 7 10 1014.4 1014.2 0.0
04/12:30am 9.3 5.3 6.7 84 1.3 NW 17 20 9 11 1014.4 1014.2 0.0
04/12:00am 8.9 5.6 6.5 85 1.2 NNW 13 15 7 8 1014.6 1014.3 0.0
 
Date/Time
EST
Temp
°C
App
Temp
°C
Dew
Point
Rel
Hum
%
Delta-T
°C
Wind Press
QNH
hPa
Press
MSL
hPa
Rain
since 9 am
mm
Dir
 
Spd
km/h
Gust
km/h
Spd
kts
Gust
kts
03/11:30pm 9.4 5.8 6.8 84 1.3 NNW 15 17 8 9 1014.7 1014.4 0.0
03/11:00pm 9.7 5.8 7.1 84 1.3 NNW 17 19 9 10 1014.7 1014.4 0.0
03/10:30pm 9.7 5.8 7.0 83 1.3 NNW 17 19 9 10 1014.8 1014.5 0.0
03/10:00pm 9.8 5.9 6.9 82 1.4 NW 17 19 9 10 1014.7 1014.4 0.0
03/09:30pm 9.5 5.8 6.2 80 1.6 NW 15 17 8 9 1014.4 1014.2 0.0
03/09:00pm 9.9 6.2 6.1 77 1.8 NW 15 17 8 9 1014.3 1014.1 0.0
03/08:30pm 10.7 6.6 6.1 73 2.2 NW 17 19 9 10 1013.9 1013.7 0.0
03/08:00pm 10.7 6.6 6.1 73 2.2 NW 17 19 9 10 1013.7 1013.4 0.0
03/07:30pm 11.2 6.7 5.9 70 2.6 NW 19 20 10 11 1013.4 1013.1 0.0
03/07:00pm 11.1 6.9 5.6 69 2.7 NW 17 20 9 11 1012.9 1012.7 0.0
03/06:30pm 11.7 7.4 5.1 64 3.2 NW 17 20 9 11 1012.4 1012.1 0.0
03/06:00pm 13.0 8.2 4.9 58 3.9 NW 19 24 10 13 1012.1 1011.8 0.0
03/05:30pm 13.6 8.7 4.2 53 4.5 NW 19 24 10 13 1011.8 1011.5 0.0
03/05:00pm 15.2 9.3 4.0 47 5.4 NW 24 30 13 16 1011.3 1011.0 0.0
03/04:30pm 16.4 10.2 4.4 45 5.9 NW 26 32 14 17 1011.2 1010.9 0.0
03/04:00pm 17.1 10.5 4.4 43 6.2 WNW 28 37 15 20 1011.1 1010.8 0.0
03/03:38pm 17.4 11.0 5.4 45 6.0 NW 28 35 15 19 1011.2 1010.9 0.0
03/03:30pm 17.5 10.7 5.1 44 6.2 NW 30 37 16 20 1011.2 1010.9 0.0
03/03:21pm 17.9 12.3 5.5 44 6.3 WNW 24 35 13 19 1011.2 1010.9 0.0
03/03:00pm 17.8 11.8 5.4 44 6.3 NW 26 37 14 20 1011.2 1010.9 0.0
03/02:30pm 18.3 11.9 5.2 42 6.6 NW 28 39 15 21 1011.3 1011.0 0.0
03/02:00pm 18.5 12.6 5.7 43 6.5 WNW 26 35 14 19 1011.4 1011.1 0.0
03/01:30pm 18.2 12.9 5.1 42 6.6 NW 22 44 12 24 1011.8 1011.5 0.0
03/01:00pm 17.6 11.5 4.9 43 6.3 WNW 26 35 14 19 1012.2 1011.9 0.0
03/12:30pm 17.5 12.0 5.8 46 5.9 WNW 24 33 13 18 1012.6 1012.3 0.0
03/12:00pm 17.3 11.3 5.3 45 6.0 WNW 26 35 14 19 1013.0 1012.8 0.0
03/11:30am 16.9 10.8 6.7 51 5.2 NW 28 35 15 19 1013.5 1013.2 0.0
03/11:00am 16.1 12.0 6.3 52 5.0 WNW 17 24 9 13 1013.8 1013.5 0.0
03/10:30am 15.4 10.0 6.4 55 4.5 WNW 24 32 13 17 1014.3 1014.1 0.0
03/10:00am 14.7 10.1 6.3 57 4.2 WNW 20 28 11 15 1014.6 1014.3 0.0

Other Formats:

Comma delimited format used in spreadsheet applications
http://www.bom.gov.au/fwo/IDN60801/IDN60801.94729.axf

JavaScript Object Notation format (JSON) in row-major order
http://www.bom.gov.au/fwo/IDN60801/IDN60801.94729.json